createdAt,value
2019-04-01T00:01:39.931Z,20.23
2019-04-01T00:04:21.200Z,19.30
2019-04-01T00:07:02.012Z,17.10
2019-04-01T00:09:42.932Z,18.62
2019-04-01T00:12:42.383Z,23.23
2019-04-01T00:15:23.196Z,18.93
2019-04-01T00:18:03.750Z,17.70
2019-04-01T00:20:45.006Z,18.67
2019-04-01T00:23:25.606Z,17.93
2019-04-01T00:26:06.272Z,19.97
2019-04-01T00:28:45.652Z,19.37
2019-04-01T00:37:21.249Z,22.17
2019-04-01T00:46:19.843Z,21.20
2019-04-01T01:00:45.004Z,23.50
2019-04-01T01:03:33.244Z,24.50
2019-04-01T01:12:09.848Z,18.87
2019-04-01T01:14:58.154Z,20.40
2019-04-01T01:17:46.509Z,20.00
2019-04-01T01:20:34.898Z,20.43
2019-04-01T01:34:51.080Z,17.73
2019-04-01T01:37:32.195Z,20.93
2019-04-01T01:43:19.055Z,21.97
2019-04-01T01:45:59.704Z,22.63
2019-04-01T01:48:41.223Z,21.90
2019-04-01T01:51:21.982Z,25.68
2019-04-01T01:54:03.362Z,22.55
2019-04-01T01:56:44.827Z,22.33
2019-04-01T01:59:25.483Z,20.90
2019-04-01T02:02:06.834Z,26.90
2019-04-01T02:04:48.211Z,20.67
2019-04-01T02:07:28.795Z,27.03
2019-04-01T02:10:10.196Z,25.13
2019-04-01T02:12:51.366Z,22.13
2019-04-01T02:15:31.906Z,25.23
2019-04-01T02:18:13.014Z,23.07
2019-04-01T02:20:53.550Z,26.60
2019-04-01T02:23:34.621Z,24.20
2019-04-01T02:26:15.611Z,23.40
2019-04-01T02:28:56.272Z,22.10
2019-04-01T02:31:37.626Z,22.23
2019-04-01T02:34:18.540Z,23.97
2019-04-01T02:36:59.044Z,25.30
2019-04-01T02:39:39.929Z,21.33
2019-04-01T02:42:21.204Z,25.50
2019-04-01T02:45:02.491Z,32.00
2019-04-01T02:47:43.172Z,23.60
2019-04-01T02:50:23.966Z,29.80
2019-04-01T02:53:05.207Z,19.13
2019-04-01T02:55:46.556Z,19.23
2019-04-01T02:58:27.903Z,34.10
2019-04-01T03:01:09.083Z,20.90
2019-04-01T03:03:49.950Z,20.23
2019-04-01T03:06:30.610Z,21.27
2019-04-01T03:09:30.711Z,23.10
2019-04-01T03:12:11.764Z,23.60
2019-04-01T03:14:53.737Z,30.13
2019-04-01T03:17:34.707Z,22.77
2019-04-01T03:20:15.777Z,23.70
2019-04-01T03:22:56.825Z,29.18
2019-04-01T03:25:38.356Z,18.80
2019-04-01T03:28:19.366Z,23.30
2019-04-01T03:31:00.830Z,21.90
2019-04-01T03:33:42.037Z,22.70
2019-04-01T03:36:24.413Z,24.83
2019-04-01T03:39:06.066Z,23.90
2019-04-01T03:41:47.021Z,23.87
2019-04-01T03:44:16.309Z,22.83
2019-04-01T03:47:04.850Z,22.37
2019-04-01T03:49:46.048Z,23.40
2019-04-01T03:52:26.841Z,23.33
2019-04-01T03:55:07.383Z,23.83
2019-04-01T03:57:48.832Z,26.57
2019-04-01T04:00:30.005Z,25.20
2019-04-01T04:03:14.134Z,29.53
2019-04-01T04:05:54.794Z,30.73
2019-04-01T04:08:36.004Z,23.10
2019-04-01T04:11:17.483Z,21.25
2019-04-01T04:13:58.358Z,25.53
2019-04-01T04:16:39.213Z,26.93
2019-04-01T04:19:20.460Z,26.57
2019-04-01T04:22:01.974Z,36.10
2019-04-01T04:24:43.097Z,24.52
2019-04-01T04:27:23.673Z,22.30
2019-04-01T04:30:04.656Z,28.90
2019-04-01T04:32:46.082Z,33.80
2019-04-01T04:35:26.940Z,28.53
2019-04-01T04:38:07.810Z,28.27
2019-04-01T04:40:48.654Z,29.73
2019-04-01T04:43:30.081Z,25.40
2019-04-01T04:46:11.556Z,30.62
2019-04-01T04:48:52.351Z,34.93
2019-04-01T04:51:33.604Z,24.90
2019-04-01T04:54:14.793Z,31.95
2019-04-01T04:56:55.589Z,27.83
2019-04-01T04:59:36.891Z,26.80
2019-04-01T05:02:18.093Z,30.73
2019-04-01T05:04:58.630Z,27.97
2019-04-01T05:07:39.563Z,25.40
2019-04-01T05:10:20.405Z,23.73
2019-04-01T05:13:00.981Z,25.70
2019-04-01T05:16:00.464Z,28.43
2019-04-01T05:18:41.358Z,30.20
2019-04-01T05:21:22.318Z,26.40
2019-04-01T05:24:03.351Z,26.97
2019-04-01T05:26:44.322Z,25.70
2019-04-01T05:29:25.142Z,25.10
2019-04-01T05:32:06.187Z,26.27
2019-04-01T05:34:47.363Z,28.73
2019-04-01T05:37:28.152Z,25.97
2019-04-01T05:40:09.522Z,25.27
2019-04-01T05:42:50.473Z,26.43
2019-04-01T05:45:31.106Z,28.47
2019-04-01T05:48:13.542Z,23.73
2019-04-01T05:53:59.516Z,30.15
2019-04-01T05:56:40.734Z,20.77
2019-04-01T05:59:21.277Z,25.88
2019-04-01T06:02:02.740Z,24.77
2019-04-01T06:04:43.347Z,23.13
2019-04-01T06:07:24.035Z,25.07
2019-04-01T06:10:04.799Z,22.03
2019-04-01T06:12:45.627Z,24.10
2019-04-01T06:15:26.292Z,23.27
2019-04-01T06:18:06.776Z,24.17
2019-04-01T06:20:47.596Z,25.00
2019-04-01T06:23:28.538Z,22.32
2019-04-01T06:29:15.226Z,19.05
2019-04-01T06:31:56.446Z,26.53
2019-04-01T06:34:37.147Z,24.27
2019-04-01T06:37:18.358Z,24.53
2019-04-01T06:39:59.496Z,32.17
2019-04-01T06:42:40.054Z,27.20
2019-04-01T06:45:21.117Z,19.20
2019-04-01T06:48:02.562Z,25.57
2019-04-01T06:50:43.528Z,24.67
2019-04-01T06:53:24.425Z,27.17
2019-04-01T06:56:05.518Z,29.30
2019-04-01T06:58:46.160Z,30.27
2019-04-01T07:01:27.092Z,25.27
2019-04-01T07:04:07.657Z,30.43
2019-04-01T07:06:49.069Z,30.30
2019-04-01T07:09:30.089Z,34.27
2019-04-01T07:15:19.667Z,34.33
2019-04-01T07:18:00.779Z,35.90
2019-04-01T07:20:41.418Z,37.37
2019-04-01T07:23:22.227Z,34.90
2019-04-01T07:26:03.058Z,37.20
2019-04-01T07:31:52.127Z,37.00
2019-04-01T07:34:33.118Z,42.62
2019-04-01T07:37:14.034Z,35.80
2019-04-01T07:39:54.680Z,36.20
2019-04-01T07:42:35.632Z,37.93
2019-04-01T07:45:17.082Z,39.70
2019-04-01T07:47:57.658Z,38.93
2019-04-01T07:50:38.336Z,35.47
2019-04-01T07:53:19.287Z,38.80
2019-04-01T07:59:18.876Z,38.50
2019-04-01T08:01:59.731Z,40.13
2019-04-01T08:04:40.374Z,39.27
2019-04-01T08:07:21.083Z,41.87
2019-04-01T08:10:02.239Z,36.60
2019-04-01T08:12:43.534Z,34.60
2019-04-01T08:15:24.981Z,34.70
2019-04-01T08:18:06.137Z,41.20
2019-04-01T08:20:47.085Z,35.40
2019-04-01T08:23:28.098Z,38.50
2019-04-01T08:26:08.953Z,43.60
2019-04-01T08:28:50.406Z,37.30
2019-04-01T08:31:31.247Z,38.07
2019-04-01T08:34:12.140Z,37.50
2019-04-01T08:36:53.436Z,35.13
2019-04-01T08:39:34.756Z,34.33
2019-04-01T08:42:15.608Z,33.93
2019-04-01T08:44:56.584Z,37.40
2019-04-01T08:50:56.838Z,29.93
2019-04-01T08:53:37.476Z,36.95
2019-04-01T08:56:18.388Z,40.07
2019-04-01T08:58:57.833Z,35.10
2019-04-01T09:01:46.199Z,38.00
2019-04-01T09:04:34.469Z,35.23
2019-04-01T09:07:22.697Z,31.80
2019-04-01T09:10:11.077Z,38.97
2019-04-01T09:12:59.742Z,33.53
2019-04-01T09:15:48.120Z,42.07
2019-04-01T09:21:43.897Z,40.83
2019-04-01T09:24:32.257Z,35.50
2019-04-01T09:30:27.944Z,33.40
2019-04-01T09:33:16.287Z,34.13
2019-04-01T09:38:58.520Z,38.03
2019-04-01T09:44:41.076Z,35.67
2019-04-01T09:47:29.318Z,36.90
2019-04-01T09:50:17.012Z,31.57
2019-04-01T09:53:05.310Z,36.15
2019-04-01T09:55:53.594Z,31.52
2019-04-01T09:58:41.839Z,33.23
2019-04-01T10:01:22.462Z,32.97
2019-04-01T10:04:02.002Z,33.07
2019-04-01T10:06:50.244Z,38.30
2019-04-01T10:09:38.540Z,41.87
2019-04-01T10:15:34.230Z,32.20
2019-04-01T10:18:22.496Z,29.97
2019-04-01T10:21:03.883Z,33.03
2019-04-01T10:23:44.853Z,29.90
2019-04-01T10:26:25.789Z,36.67
2019-04-01T10:29:07.273Z,30.93
2019-04-01T10:31:48.742Z,31.10
2019-04-01T10:34:29.787Z,30.57
2019-04-01T10:37:10.903Z,31.93
2019-04-01T10:46:05.347Z,31.57
2019-04-01T10:48:46.685Z,32.98
2019-04-01T10:51:27.357Z,34.73
2019-04-01T10:54:08.128Z,31.93
2019-04-01T10:56:49.247Z,27.80
2019-04-01T10:59:30.253Z,31.77
2019-04-01T11:02:11.209Z,34.27
2019-04-01T11:04:52.186Z,32.20
2019-04-01T11:07:33.163Z,28.23
2019-04-01T11:13:33.213Z,34.20
2019-04-01T11:16:14.718Z,42.90
2019-04-01T11:18:58.091Z,32.60
2019-04-01T11:21:39.051Z,29.53
2019-04-01T11:24:20.199Z,32.53
2019-04-01T11:27:01.100Z,28.02
2019-04-01T11:29:41.721Z,28.93
2019-04-01T11:32:22.947Z,32.60
2019-04-01T11:35:04.509Z,23.47
2019-04-01T11:37:45.365Z,24.93
2019-04-01T11:40:26.622Z,29.77
2019-04-01T11:43:07.372Z,26.80
2019-04-01T11:49:08.431Z,22.50
2019-04-01T11:51:49.080Z,24.77
2019-04-01T11:54:29.872Z,24.07
2019-04-01T11:57:11.073Z,26.83
2019-04-01T11:59:51.968Z,23.67
2019-04-01T12:02:32.617Z,31.20
2019-04-01T12:05:12.282Z,22.77
2019-04-01T12:08:00.821Z,28.10
2019-04-01T12:10:49.119Z,23.50
2019-04-01T12:13:37.486Z,23.33
2019-04-01T12:16:25.817Z,26.17
2019-04-01T12:19:14.135Z,29.13
2019-04-01T12:22:02.476Z,26.47
2019-04-01T12:24:50.850Z,26.37
2019-04-01T12:27:39.092Z,22.50
2019-04-01T12:30:27.391Z,22.53
2019-04-01T12:39:24.376Z,20.80
2019-04-01T12:42:12.743Z,23.40
2019-04-01T12:47:54.652Z,27.30
2019-04-01T12:53:36.854Z,23.03
2019-04-01T12:59:11.567Z,19.10
2019-04-01T13:01:52.965Z,22.27
2019-04-01T13:04:36.074Z,25.50
2019-04-01T13:07:16.859Z,20.10
2019-04-01T13:09:56.901Z,30.83
2019-04-01T13:12:46.307Z,21.90
2019-04-01T13:15:35.173Z,28.47
2019-04-01T13:18:23.549Z,20.73
2019-04-01T13:29:53.974Z,20.87
2019-04-01T13:32:42.286Z,30.47
2019-04-01T13:41:18.847Z,23.15
2019-04-01T13:44:09.122Z,21.03
2019-04-01T13:46:57.286Z,23.40
2019-04-01T13:49:45.672Z,24.47
2019-04-01T13:52:34.030Z,23.37
2019-04-01T13:55:22.302Z,20.40
2019-04-01T13:58:10.954Z,19.93
2019-04-01T14:04:11.985Z,22.57
2019-04-01T14:10:01.717Z,22.40
2019-04-01T14:16:02.289Z,22.30
2019-04-01T14:18:43.487Z,26.27
2019-04-01T14:21:24.809Z,24.60
2019-04-01T14:24:06.017Z,23.50
2019-04-01T14:26:46.839Z,21.03
2019-04-01T14:29:27.405Z,27.43
2019-04-01T14:32:08.274Z,25.03
2019-04-01T14:34:50.461Z,19.97
2019-04-01T14:37:31.218Z,20.97
2019-04-01T14:40:12.319Z,22.77
2019-04-01T14:42:53.513Z,24.80
2019-04-01T14:45:35.467Z,20.67
2019-04-01T14:48:16.868Z,22.13
2019-04-01T14:50:57.516Z,27.50
2019-04-01T14:53:38.222Z,23.40
2019-04-01T14:56:19.025Z,24.77
2019-04-01T14:59:00.100Z,21.07
2019-04-01T15:01:40.966Z,20.13
2019-04-01T15:04:21.764Z,24.20
2019-04-01T15:07:02.657Z,23.67
2019-04-01T15:09:44.027Z,25.17
2019-04-01T15:12:24.904Z,23.43
2019-04-01T15:15:06.241Z,23.60
2019-04-01T15:17:47.610Z,22.50
2019-04-01T15:20:28.718Z,23.80
2019-04-01T15:23:10.666Z,22.10
2019-04-01T15:25:54.400Z,28.27
2019-04-01T15:28:34.190Z,24.73
2019-04-01T15:31:15.388Z,23.50
2019-04-01T15:34:03.607Z,31.03
2019-04-01T15:45:33.175Z,23.27
2019-04-01T15:48:13.860Z,24.00
2019-04-01T15:50:54.509Z,27.20
2019-04-01T15:53:35.731Z,24.67
2019-04-01T15:56:16.930Z,24.53
2019-04-01T15:58:57.641Z,31.87
2019-04-01T16:01:39.006Z,26.77
2019-04-01T16:04:19.594Z,26.20
2019-04-01T16:07:00.576Z,23.70
2019-04-01T16:09:41.476Z,28.50
2019-04-01T16:12:22.874Z,25.60
2019-04-01T16:15:03.613Z,27.17
2019-04-01T16:17:44.245Z,27.60
2019-04-01T16:20:26.189Z,24.67
2019-04-01T16:23:07.094Z,28.90
2019-04-01T16:25:48.521Z,26.57
2019-04-01T16:28:29.226Z,28.67
2019-04-01T16:31:10.677Z,30.63
2019-04-01T16:33:51.653Z,26.10
2019-04-01T16:36:32.111Z,22.73
2019-04-01T16:39:13.700Z,27.43
2019-04-01T16:41:54.415Z,23.63
2019-04-01T16:44:34.973Z,33.63
2019-04-01T16:47:16.187Z,23.73
2019-04-01T16:49:56.885Z,25.90
2019-04-01T16:52:37.520Z,38.63
2019-04-01T16:55:18.775Z,27.90
2019-04-01T16:57:59.816Z,32.80
2019-04-01T17:00:41.002Z,37.63
2019-04-01T17:03:22.426Z,23.57
2019-04-01T17:06:03.857Z,26.20
2019-04-01T17:08:44.591Z,30.47
2019-04-01T17:11:25.254Z,25.83
2019-04-01T17:14:08.902Z,32.00
2019-04-01T17:16:48.986Z,33.83
2019-04-01T17:19:29.690Z,25.73
2019-04-01T17:22:11.574Z,23.63
2019-04-01T17:24:53.073Z,31.77
2019-04-01T17:27:33.776Z,29.50
2019-04-01T17:30:14.556Z,24.13
2019-04-01T17:32:56.049Z,23.67
2019-04-01T17:35:37.137Z,24.83
2019-04-01T17:38:18.438Z,25.23
2019-04-01T17:40:59.568Z,27.43
2019-04-01T17:43:28.763Z,29.97
2019-04-01T17:46:17.122Z,40.60
2019-04-01T17:51:59.862Z,39.47
2019-04-01T17:54:48.459Z,32.83
2019-04-01T18:03:31.805Z,25.43
2019-04-01T18:06:20.236Z,26.70
2019-04-01T18:20:44.970Z,23.07
2019-04-01T18:23:33.300Z,28.80
2019-04-01T18:29:15.177Z,28.30
2019-04-01T18:32:03.599Z,24.80
2019-04-01T18:37:59.413Z,26.17
2019-04-01T18:43:45.025Z,30.10
2019-04-01T18:46:26.546Z,31.52
2019-04-01T18:49:07.962Z,29.30
2019-04-01T18:51:49.002Z,30.13
2019-04-01T18:54:28.402Z,27.47
2019-04-01T18:57:16.727Z,29.87
2019-04-01T19:02:59.207Z,21.97
2019-04-01T19:08:36.418Z,25.63
2019-04-01T19:17:25.969Z,25.47
2019-04-01T19:20:14.458Z,24.03
2019-04-01T19:23:02.822Z,22.67
2019-04-01T19:34:46.516Z,27.23
2019-04-01T19:43:35.879Z,37.33
2019-04-01T20:01:10.846Z,24.20
2019-04-01T20:03:52.229Z,35.67
2019-04-01T20:06:31.720Z,29.20
2019-04-01T20:15:19.997Z,26.53
2019-04-01T20:18:07.972Z,24.73
2019-04-01T20:23:50.195Z,28.63
2019-04-01T20:26:33.372Z,20.50
2019-04-01T20:29:14.269Z,26.33
2019-04-01T20:31:55.390Z,27.48
2019-04-01T20:34:35.255Z,22.57
2019-04-01T20:37:23.563Z,23.80
2019-04-01T20:40:12.188Z,24.70
2019-04-01T20:43:00.948Z,26.40
2019-04-01T20:45:49.236Z,22.47
2019-04-01T20:48:37.494Z,24.60
2019-04-01T20:51:26.131Z,22.30
2019-04-01T21:05:53.163Z,26.55
2019-04-01T21:08:42.289Z,26.90
2019-04-01T21:11:30.591Z,24.13
2019-04-01T21:14:18.823Z,23.83
2019-04-01T21:20:01.010Z,18.67
2019-04-01T21:22:49.371Z,26.13
2019-04-01T21:25:37.702Z,25.60
2019-04-01T21:31:01.418Z,24.33
2019-04-01T21:33:42.816Z,26.20
2019-04-01T21:36:23.618Z,24.30
2019-04-01T21:42:22.993Z,27.33
2019-04-01T21:45:04.139Z,21.23
2019-04-01T21:47:45.293Z,22.13
2019-04-01T21:50:29.489Z,29.10
2019-04-01T21:53:09.123Z,20.87
2019-04-01T21:55:50.076Z,23.90
2019-04-01T21:58:30.739Z,28.77
2019-04-01T22:01:14.254Z,20.87
2019-04-01T22:03:55.367Z,22.63
2019-04-01T22:09:37.512Z,22.67
2019-04-01T22:18:26.992Z,23.97
2019-04-01T22:30:29.680Z,22.03
2019-04-01T22:36:30.866Z,21.50
2019-04-01T22:42:59.552Z,25.20
2019-04-01T22:45:48.332Z,20.40
2019-04-01T22:51:26.093Z,21.50
2019-04-01T22:54:14.361Z,18.83
2019-04-01T23:00:10.255Z,19.40
2019-04-01T23:06:06.281Z,25.63
2019-04-01T23:08:55.978Z,19.30
2019-04-01T23:17:32.974Z,19.60
2019-04-01T23:20:21.298Z,22.40
2019-04-01T23:25:55.367Z,21.17
2019-04-01T23:28:36.450Z,33.30
2019-04-01T23:31:18.183Z,23.50
2019-04-01T23:33:59.953Z,20.63
2019-04-01T23:36:41.102Z,22.80
2019-04-01T23:39:22.492Z,18.97
2019-04-01T23:42:03.201Z,22.17
2019-04-01T23:48:02.965Z,25.30
2019-04-01T23:50:43.865Z,17.90
2019-04-01T23:53:25.054Z,25.80
2019-04-01T23:56:05.645Z,25.13
2019-04-01T23:58:46.820Z,18.17
